createdAt,value
2023-02-27T00:01:40.151Z,1.58
2023-02-27T00:04:06.670Z,1.40
2023-02-27T00:06:33.130Z,1.33
2023-02-27T00:08:59.626Z,1.50
2023-02-27T00:11:29.533Z,1.35
2023-02-27T00:13:56.144Z,1.30
2023-02-27T00:16:22.738Z,1.38
2023-02-27T00:18:49.166Z,1.48
2023-02-27T00:21:15.563Z,1.60
2023-02-27T00:23:41.959Z,1.50
2023-02-27T00:26:08.371Z,2.17
2023-02-27T00:28:37.193Z,1.35
2023-02-27T00:31:04.800Z,1.60
2023-02-27T00:33:31.280Z,1.00
2023-02-27T00:35:58.692Z,1.05
2023-02-27T00:38:25.425Z,0.93
2023-02-27T00:40:52.171Z,0.88
2023-02-27T00:43:18.705Z,1.45
2023-02-27T00:45:45.137Z,0.73
2023-02-27T00:48:11.540Z,1.40
2023-02-27T00:50:38.026Z,1.25
2023-02-27T00:53:04.469Z,1.05
2023-02-27T00:55:31.057Z,1.15
2023-02-27T00:57:57.581Z,1.33
2023-02-27T01:00:24.496Z,1.33
2023-02-27T01:02:51.036Z,1.10
2023-02-27T01:05:17.471Z,1.15
2023-02-27T01:07:44.524Z,1.20
2023-02-27T01:10:13.876Z,1.00
2023-02-27T01:12:40.819Z,1.13
2023-02-27T01:15:08.045Z,1.30
2023-02-27T01:17:34.466Z,1.27
2023-02-27T01:20:00.942Z,1.10
2023-02-27T01:22:27.421Z,0.98
2023-02-27T01:24:53.835Z,0.93
2023-02-27T01:27:22.569Z,0.90
2023-02-27T01:29:49.091Z,1.17
2023-02-27T01:32:15.647Z,1.20
2023-02-27T01:34:42.582Z,1.23
2023-02-27T01:37:09.040Z,1.13
2023-02-27T01:39:36.603Z,1.40
2023-02-27T01:42:03.564Z,1.40
2023-02-27T01:44:33.158Z,1.42
2023-02-27T01:46:59.769Z,1.33
2023-02-27T01:49:33.532Z,1.40
2023-02-27T01:52:06.187Z,1.27
2023-02-27T01:54:35.005Z,1.02
2023-02-27T01:57:03.219Z,1.50
2023-02-27T01:59:29.932Z,1.40
2023-02-27T02:01:57.437Z,1.42
2023-02-27T02:04:23.875Z,1.40
2023-02-27T02:06:53.736Z,1.30
2023-02-27T02:09:21.665Z,1.52
2023-02-27T02:11:48.650Z,1.10
2023-02-27T02:14:15.133Z,1.35
2023-02-27T02:16:54.743Z,1.30
2023-02-27T02:19:30.254Z,1.60
2023-02-27T02:22:12.013Z,1.95
2023-02-27T02:24:47.697Z,1.50
2023-02-27T02:27:14.096Z,1.45
2023-02-27T02:29:47.981Z,1.45
2023-02-27T02:32:32.959Z,1.40
2023-02-27T02:35:22.582Z,1.30
2023-02-27T02:37:58.046Z,1.73
2023-02-27T02:40:37.852Z,1.52
2023-02-27T02:43:13.079Z,1.30
2023-02-27T02:45:57.246Z,1.38
2023-02-27T02:48:29.351Z,1.70
2023-02-27T02:50:58.780Z,1.50
2023-02-27T02:53:36.349Z,1.70
2023-02-27T02:56:12.572Z,1.50
2023-02-27T02:59:01.441Z,1.60
2023-02-27T03:01:57.273Z,1.45
2023-02-27T03:04:29.785Z,1.38
2023-02-27T03:06:59.599Z,1.52
2023-02-27T03:09:29.669Z,1.60
2023-02-27T03:11:57.146Z,1.70
2023-02-27T03:14:32.472Z,2.05
2023-02-27T03:17:02.066Z,1.88
2023-02-27T03:19:33.648Z,1.98
2023-02-27T03:22:02.803Z,2.00
2023-02-27T03:24:40.144Z,1.63
2023-02-27T03:27:07.709Z,1.55
2023-02-27T03:29:42.735Z,1.63
2023-02-27T03:32:15.488Z,1.35
2023-02-27T03:34:42.656Z,1.88
2023-02-27T03:37:15.013Z,1.80
2023-02-27T03:39:41.461Z,1.92
2023-02-27T03:42:10.930Z,1.95
2023-02-27T03:44:43.547Z,1.95
2023-02-27T03:47:09.969Z,1.63
2023-02-27T03:49:36.454Z,1.92
2023-02-27T03:52:03.944Z,1.60
2023-02-27T03:54:38.409Z,1.70
2023-02-27T03:57:06.369Z,1.58
2023-02-27T03:59:33.414Z,1.95
2023-02-27T04:02:02.626Z,2.00
2023-02-27T04:04:31.978Z,2.08
2023-02-27T04:07:22.974Z,1.80
2023-02-27T04:12:22.012Z,2.00
2023-02-27T04:14:48.426Z,1.70
2023-02-27T04:17:21.790Z,1.98
2023-02-27T04:19:56.218Z,1.77
2023-02-27T04:22:28.849Z,1.83
2023-02-27T04:25:15.811Z,1.52
2023-02-27T04:27:45.284Z,2.22
2023-02-27T04:30:31.966Z,1.73
2023-02-27T04:33:05.699Z,1.45
2023-02-27T04:35:38.264Z,2.13
2023-02-27T04:38:04.630Z,1.98
2023-02-27T04:40:35.634Z,2.00
2023-02-27T04:43:03.948Z,1.90
2023-02-27T04:45:32.249Z,2.25
2023-02-27T04:48:07.517Z,1.88
2023-02-27T04:50:40.062Z,1.70
2023-02-27T04:53:29.772Z,1.50
2023-02-27T04:56:07.978Z,2.00
2023-02-27T04:58:54.633Z,2.00
2023-02-27T05:01:24.809Z,2.10
2023-02-27T05:03:52.545Z,2.30
2023-02-27T05:06:22.099Z,2.13
2023-02-27T05:08:48.465Z,2.40
2023-02-27T05:11:18.574Z,2.65
2023-02-27T05:13:47.442Z,2.42
2023-02-27T05:16:22.824Z,2.17
2023-02-27T05:18:49.593Z,2.63
2023-02-27T05:21:16.012Z,2.53
2023-02-27T05:23:45.491Z,2.20
2023-02-27T05:26:17.258Z,2.10
2023-02-27T05:29:01.078Z,2.00
2023-02-27T05:31:44.644Z,2.10
2023-02-27T05:34:22.594Z,2.65
2023-02-27T05:36:54.493Z,3.65
2023-02-27T05:39:21.572Z,2.55
2023-02-27T05:41:50.257Z,2.25
2023-02-27T05:44:25.728Z,2.42
2023-02-27T05:47:13.524Z,1.75
2023-02-27T05:50:03.307Z,2.10
2023-02-27T05:52:30.825Z,1.92
2023-02-27T05:55:00.024Z,1.80
2023-02-27T05:57:29.467Z,1.90
2023-02-27T06:00:14.661Z,2.20
2023-02-27T06:02:42.198Z,1.40
2023-02-27T06:05:08.978Z,1.63
2023-02-27T06:07:37.329Z,1.55
2023-02-27T06:10:05.094Z,1.92
2023-02-27T06:12:31.594Z,1.30
2023-02-27T06:14:57.996Z,1.70
2023-02-27T06:17:24.436Z,1.52
2023-02-27T06:19:50.929Z,1.50
2023-02-27T06:22:17.341Z,1.75
2023-02-27T06:24:43.747Z,1.50
2023-02-27T06:27:10.215Z,1.70
2023-02-27T06:29:36.651Z,1.65
2023-02-27T06:32:03.073Z,1.50
2023-02-27T06:34:29.497Z,1.60
2023-02-27T06:36:55.948Z,1.58
2023-02-27T06:39:22.860Z,1.92
2023-02-27T06:41:49.456Z,2.00
2023-02-27T06:44:17.514Z,2.05
2023-02-27T06:46:45.694Z,1.83
2023-02-27T06:49:12.243Z,1.80
2023-02-27T06:51:39.272Z,2.20
2023-02-27T06:54:05.719Z,2.97
2023-02-27T06:56:32.141Z,4.03
2023-02-27T06:58:59.570Z,3.90
2023-02-27T07:01:26.423Z,4.38
2023-02-27T07:03:54.770Z,5.55
2023-02-27T07:06:21.163Z,4.75
2023-02-27T07:09:07.656Z,3.90
2023-02-27T07:11:34.253Z,4.63
2023-02-27T07:14:00.700Z,4.88
2023-02-27T07:16:27.360Z,4.43
2023-02-27T07:18:53.958Z,4.80
2023-02-27T07:21:20.519Z,4.65
2023-02-27T07:23:47.027Z,3.72
2023-02-27T07:26:13.455Z,2.85
2023-02-27T07:28:39.875Z,2.95
2023-02-27T07:31:09.140Z,2.22
2023-02-27T07:33:35.672Z,3.00
2023-02-27T07:36:02.451Z,2.45
2023-02-27T07:38:28.951Z,2.85
2023-02-27T07:40:55.359Z,2.70
2023-02-27T07:43:21.734Z,2.80
2023-02-27T07:45:50.661Z,2.70
2023-02-27T07:48:20.090Z,2.63
2023-02-27T07:50:46.481Z,2.53
2023-02-27T07:53:13.441Z,2.25
2023-02-27T07:55:39.949Z,2.30
2023-02-27T07:58:06.650Z,1.70
2023-02-27T08:00:33.111Z,1.75
2023-02-27T08:03:00.489Z,1.42
2023-02-27T08:05:28.820Z,1.75
2023-02-27T08:07:55.305Z,1.75
2023-02-27T08:10:21.773Z,1.60
2023-02-27T08:12:48.269Z,2.25
2023-02-27T08:15:14.768Z,2.35
2023-02-27T08:17:41.164Z,2.10
2023-02-27T08:20:07.981Z,2.75
2023-02-27T08:22:34.408Z,1.75
2023-02-27T08:25:01.282Z,2.08
2023-02-27T08:27:27.729Z,1.83
2023-02-27T08:29:54.205Z,1.95
2023-02-27T08:32:20.951Z,1.80
2023-02-27T08:34:47.469Z,2.15
2023-02-27T08:37:13.890Z,2.10
2023-02-27T08:39:40.302Z,1.83
2023-02-27T08:42:07.346Z,2.53
2023-02-27T08:44:33.854Z,2.40
2023-02-27T08:47:03.310Z,2.05
2023-02-27T08:49:29.708Z,1.95
2023-02-27T08:51:56.147Z,1.80
2023-02-27T08:54:22.627Z,1.85
2023-02-27T08:56:49.066Z,2.22
2023-02-27T08:59:15.667Z,1.92
2023-02-27T09:01:42.521Z,2.38
2023-02-27T09:04:09.218Z,1.65
2023-02-27T09:06:37.530Z,1.90
2023-02-27T09:09:04.531Z,2.13
2023-02-27T09:11:31.237Z,2.28
2023-02-27T09:13:58.853Z,2.25
2023-02-27T09:16:25.835Z,4.45
2023-02-27T09:18:52.681Z,3.70
2023-02-27T09:21:19.130Z,3.53
2023-02-27T09:23:45.580Z,2.13
2023-02-27T09:26:12.160Z,1.83
2023-02-27T09:28:40.064Z,2.10
2023-02-27T09:31:07.052Z,1.83
2023-02-27T09:33:34.385Z,2.20
2023-02-27T09:36:01.014Z,1.88
2023-02-27T09:38:27.588Z,2.97
2023-02-27T09:40:55.848Z,1.70
2023-02-27T09:43:24.865Z,2.15
2023-02-27T09:45:53.115Z,2.40
2023-02-27T09:48:56.684Z,1.45
2023-02-27T09:51:23.704Z,1.50
2023-02-27T09:53:51.719Z,1.70
2023-02-27T09:56:27.507Z,2.58
2023-02-27T09:59:00.262Z,1.48
2023-02-27T10:01:30.207Z,1.40
2023-02-27T10:04:15.445Z,1.40
2023-02-27T10:06:54.076Z,1.55
2023-02-27T10:09:29.593Z,1.40
2023-02-27T10:11:58.895Z,1.20
2023-02-27T10:14:34.494Z,1.55
2023-02-27T10:17:03.784Z,1.50
2023-02-27T10:19:35.875Z,1.73
2023-02-27T10:22:05.055Z,1.55
2023-02-27T10:24:33.787Z,1.40
2023-02-27T10:27:02.587Z,1.80
2023-02-27T10:29:29.383Z,1.88
2023-02-27T10:32:13.964Z,1.60
2023-02-27T10:34:42.028Z,1.35
2023-02-27T10:37:11.893Z,1.23
2023-02-27T10:39:47.469Z,0.90
2023-02-27T10:42:15.264Z,0.60
2023-02-27T10:44:41.928Z,0.82
2023-02-27T10:47:12.995Z,0.60
2023-02-27T10:49:39.549Z,0.70
2023-02-27T10:52:06.054Z,0.50
2023-02-27T10:54:32.521Z,0.70
2023-02-27T10:57:00.760Z,0.70
2023-02-27T10:59:28.850Z,0.50
2023-02-27T11:02:03.037Z,0.70
2023-02-27T11:04:33.785Z,0.68
2023-02-27T11:07:01.337Z,1.30
2023-02-27T11:09:29.554Z,0.40
2023-02-27T11:12:09.461Z,0.70
2023-02-27T11:14:36.144Z,0.40
2023-02-27T11:17:03.276Z,0.30
2023-02-27T11:19:29.689Z,1.10
2023-02-27T11:22:24.155Z,0.40
2023-02-27T11:24:51.773Z,0.60
2023-02-27T11:27:21.908Z,0.50
2023-02-27T11:29:58.172Z,1.35
2023-02-27T11:32:26.231Z,0.52
2023-02-27T11:34:53.096Z,1.17
2023-02-27T11:37:19.479Z,0.60
2023-02-27T11:39:50.825Z,0.40
2023-02-27T11:42:26.155Z,0.60
2023-02-27T11:45:03.541Z,0.60
2023-02-27T11:47:35.674Z,0.50
2023-02-27T11:50:02.104Z,0.55
2023-02-27T11:52:34.584Z,0.60
2023-02-27T11:55:03.405Z,0.30
2023-02-27T11:57:35.184Z,0.40
2023-02-27T12:00:06.832Z,1.38
2023-02-27T12:02:45.967Z,0.50
2023-02-27T12:05:18.451Z,0.40
2023-02-27T12:08:06.331Z,0.40
2023-02-27T12:10:44.821Z,0.50
2023-02-27T12:13:15.735Z,0.40
2023-02-27T12:15:42.092Z,0.40
2023-02-27T12:18:27.727Z,0.40
2023-02-27T12:21:12.561Z,0.40
2023-02-27T12:23:42.389Z,0.45
2023-02-27T12:26:28.393Z,0.50
2023-02-27T12:29:13.991Z,0.50
2023-02-27T12:31:46.549Z,0.65
2023-02-27T12:34:18.610Z,0.80
2023-02-27T12:36:45.519Z,0.60
2023-02-27T12:39:22.873Z,0.60
2023-02-27T12:42:10.946Z,0.50
2023-02-27T12:44:37.513Z,0.50
2023-02-27T12:47:03.865Z,0.90
2023-02-27T12:49:36.970Z,0.77
2023-02-27T12:52:12.510Z,0.60
2023-02-27T12:54:51.007Z,0.82
2023-02-27T12:57:20.510Z,0.63
2023-02-27T13:00:09.215Z,0.73
2023-02-27T13:02:44.799Z,0.70
2023-02-27T13:05:11.810Z,0.90
2023-02-27T13:07:57.623Z,0.75
2023-02-27T13:10:26.832Z,0.70
2023-02-27T13:13:00.167Z,0.60
2023-02-27T13:15:27.174Z,0.70
2023-02-27T13:17:57.191Z,0.82
2023-02-27T13:20:40.875Z,0.70
2023-02-27T13:23:24.123Z,0.82
2023-02-27T13:25:51.123Z,0.90
2023-02-27T13:28:24.198Z,0.82
2023-02-27T13:30:53.627Z,0.65
2023-02-27T13:33:41.537Z,0.90
2023-02-27T13:36:44.904Z,0.90
2023-02-27T13:39:29.896Z,0.90
2023-02-27T13:41:56.616Z,0.75
2023-02-27T13:44:23.077Z,1.00
2023-02-27T13:46:49.520Z,0.63
2023-02-27T13:49:28.900Z,1.10
2023-02-27T13:51:59.361Z,0.70
2023-02-27T13:54:27.719Z,0.60
2023-02-27T13:57:00.193Z,0.52
2023-02-27T13:59:27.449Z,0.90
2023-02-27T14:01:58.804Z,0.70
2023-02-27T14:04:27.262Z,0.63
2023-02-27T14:07:01.306Z,0.60
2023-02-27T14:09:33.285Z,0.60
2023-02-27T14:12:02.046Z,0.68
2023-02-27T14:14:36.809Z,0.60
2023-02-27T14:17:03.670Z,0.80
2023-02-27T14:19:42.436Z,0.77
2023-02-27T14:22:11.898Z,0.60
2023-02-27T14:25:00.956Z,0.57
2023-02-27T14:27:56.860Z,0.60
2023-02-27T14:30:26.531Z,0.50
2023-02-27T14:33:08.208Z,0.70
2023-02-27T14:35:35.919Z,0.80
2023-02-27T14:38:06.150Z,0.50
2023-02-27T14:40:35.056Z,0.60
2023-02-27T14:43:01.450Z,0.55
2023-02-27T14:45:28.718Z,1.00
2023-02-27T14:47:58.473Z,0.70
2023-02-27T14:50:27.883Z,0.70
2023-02-27T14:52:54.442Z,0.70
2023-02-27T14:55:27.886Z,0.70
2023-02-27T14:58:14.546Z,1.88
2023-02-27T15:00:43.360Z,0.60
2023-02-27T15:03:28.617Z,0.88
2023-02-27T15:05:57.758Z,0.52
2023-02-27T15:08:26.344Z,0.60
2023-02-27T15:10:53.386Z,0.50
2023-02-27T15:13:41.906Z,0.30
2023-02-27T15:16:23.337Z,0.50
2023-02-27T15:18:54.604Z,0.40
2023-02-27T15:21:22.616Z,1.20
2023-02-27T15:23:56.173Z,0.70
2023-02-27T15:26:23.408Z,0.50
2023-02-27T15:28:50.525Z,0.63
2023-02-27T15:31:22.832Z,0.60
2023-02-27T15:33:50.498Z,0.70
2023-02-27T15:36:20.621Z,0.60
2023-02-27T15:38:47.070Z,0.40
2023-02-27T15:41:14.370Z,0.73
2023-02-27T15:43:41.374Z,0.88
2023-02-27T15:46:07.842Z,1.25
2023-02-27T15:48:34.498Z,0.70
2023-02-27T15:51:02.548Z,0.63
2023-02-27T15:53:29.940Z,0.60
2023-02-27T15:55:58.243Z,0.73
2023-02-27T15:58:28.986Z,0.50
2023-02-27T16:01:06.332Z,0.50
2023-02-27T16:03:35.746Z,1.08
2023-02-27T16:06:02.395Z,1.67
2023-02-27T16:08:30.340Z,0.50
2023-02-27T16:10:59.955Z,1.17
2023-02-27T16:13:26.306Z,0.60
2023-02-27T16:16:19.178Z,0.63
2023-02-27T16:18:56.301Z,0.63
2023-02-27T16:21:23.790Z,0.50
2023-02-27T16:23:52.871Z,0.50
2023-02-27T16:26:38.218Z,1.17
2023-02-27T16:29:16.980Z,0.63
2023-02-27T16:31:51.596Z,0.47
2023-02-27T16:34:21.060Z,0.60
2023-02-27T16:36:53.622Z,0.50
2023-02-27T16:39:20.031Z,0.55
2023-02-27T16:41:46.437Z,0.50
2023-02-27T16:44:12.881Z,0.60
2023-02-27T16:46:39.296Z,0.50
2023-02-27T16:49:19.257Z,0.57
2023-02-27T16:51:46.652Z,0.50
2023-02-27T16:54:13.993Z,0.68
2023-02-27T16:56:40.905Z,0.75
2023-02-27T16:59:07.604Z,0.50
2023-02-27T17:01:34.569Z,0.50
2023-02-27T17:04:01.140Z,0.40
2023-02-27T17:06:28.022Z,0.52
2023-02-27T17:08:56.028Z,0.50
2023-02-27T17:11:22.595Z,0.40
2023-02-27T17:13:49.064Z,0.30
2023-02-27T17:16:15.805Z,0.80
2023-02-27T17:18:42.302Z,0.50
2023-02-27T17:21:10.538Z,0.57
2023-02-27T17:23:36.983Z,0.60
2023-02-27T17:26:04.400Z,0.52
2023-02-27T17:28:31.088Z,0.55
2023-02-27T17:30:57.567Z,0.60
2023-02-27T17:33:23.969Z,0.40
2023-02-27T17:35:51.511Z,0.38
2023-02-27T17:38:17.974Z,0.50
2023-02-27T17:40:44.384Z,0.60
2023-02-27T17:43:10.797Z,0.85
2023-02-27T17:45:38.144Z,0.65
2023-02-27T17:48:04.608Z,0.50
2023-02-27T17:50:32.045Z,0.40
2023-02-27T17:52:58.492Z,0.47
2023-02-27T17:55:24.894Z,0.40
2023-02-27T17:57:51.311Z,0.40
2023-02-27T18:00:17.922Z,0.38
2023-02-27T18:02:45.068Z,0.40
2023-02-27T18:05:11.845Z,0.45
2023-02-27T18:07:38.266Z,0.47
2023-02-27T18:10:05.914Z,0.70
2023-02-27T18:12:32.517Z,0.80
2023-02-27T18:14:59.010Z,1.08
2023-02-27T18:17:25.437Z,0.40
2023-02-27T18:19:54.335Z,0.90
2023-02-27T18:22:22.105Z,0.60
2023-02-27T18:24:49.215Z,0.50
2023-02-27T18:27:15.679Z,0.50
2023-02-27T18:29:42.114Z,0.40
2023-02-27T18:32:08.896Z,0.47
2023-02-27T18:34:35.452Z,0.40
2023-02-27T18:37:03.927Z,0.55
2023-02-27T18:39:30.306Z,0.60
2023-02-27T18:41:58.405Z,0.50
2023-02-27T18:44:25.026Z,1.02
2023-02-27T18:46:51.796Z,1.70
2023-02-27T18:49:18.275Z,1.50
2023-02-27T18:51:44.674Z,1.58
2023-02-27T18:54:16.364Z,2.03
2023-02-27T18:56:42.882Z,2.70
2023-02-27T18:59:09.459Z,2.90
2023-02-27T19:01:37.268Z,3.00
2023-02-27T19:04:04.905Z,3.13
2023-02-27T19:06:32.565Z,3.60
2023-02-27T19:08:59.127Z,3.08
2023-02-27T19:11:29.665Z,3.22
2023-02-27T19:13:56.438Z,3.03
2023-02-27T19:16:23.144Z,2.97
2023-02-27T19:18:49.622Z,2.70
2023-02-27T19:21:16.087Z,2.30
2023-02-27T19:23:43.337Z,1.77
2023-02-27T19:26:09.721Z,1.42
2023-02-27T19:28:38.330Z,1.27
2023-02-27T19:31:08.581Z,2.08
2023-02-27T19:33:35.207Z,11.32
2023-02-27T19:36:04.922Z,5.53
2023-02-27T19:38:31.311Z,4.60
2023-02-27T19:41:00.650Z,4.68
2023-02-27T19:43:27.430Z,1.60
2023-02-27T19:45:53.997Z,1.77
2023-02-27T19:48:20.534Z,2.75
2023-02-27T19:50:47.028Z,2.97
2023-02-27T19:53:13.487Z,2.80
2023-02-27T19:55:39.881Z,3.47
2023-02-27T19:58:06.401Z,3.15
2023-02-27T20:00:32.908Z,3.10
2023-02-27T20:03:03.234Z,3.03
2023-02-27T20:05:29.631Z,2.88
2023-02-27T20:07:57.520Z,2.90
2023-02-27T20:10:23.967Z,3.20
2023-02-27T20:12:50.394Z,3.80
2023-02-27T20:15:16.908Z,3.20
2023-02-27T20:17:43.900Z,2.60
2023-02-27T20:20:13.696Z,2.85
2023-02-27T20:22:42.339Z,2.90
2023-02-27T20:25:08.935Z,2.35
2023-02-27T20:27:36.678Z,2.22
2023-02-27T20:30:04.118Z,1.98
2023-02-27T20:32:31.116Z,2.15
2023-02-27T20:34:57.532Z,1.60
2023-02-27T20:37:23.994Z,1.60
2023-02-27T20:39:50.528Z,1.20
2023-02-27T20:42:17.027Z,1.30
2023-02-27T20:44:43.432Z,1.20
2023-02-27T20:47:10.479Z,1.48
2023-02-27T20:49:37.015Z,1.08
2023-02-27T20:52:03.637Z,1.00
2023-02-27T20:54:30.125Z,1.38
2023-02-27T20:56:56.573Z,1.77
2023-02-27T20:59:24.740Z,1.13
2023-02-27T21:01:51.825Z,1.50
2023-02-27T21:04:23.366Z,1.90
2023-02-27T21:06:50.548Z,2.70
2023-02-27T21:09:17.124Z,2.80
2023-02-27T21:11:45.565Z,2.72
2023-02-27T21:14:12.484Z,2.95
2023-02-27T21:16:39.850Z,2.47
2023-02-27T21:19:07.334Z,2.80
2023-02-27T21:21:34.011Z,2.38
2023-02-27T21:24:00.480Z,2.67
2023-02-27T21:26:40.079Z,3.13
2023-02-27T21:29:10.952Z,2.90
2023-02-27T21:34:05.905Z,2.42
2023-02-27T21:36:33.727Z,2.58
2023-02-27T21:39:01.986Z,2.60
2023-02-27T21:41:29.110Z,2.10
2023-02-27T21:44:03.028Z,2.53
2023-02-27T21:46:29.487Z,2.13
2023-02-27T21:48:56.140Z,2.17
2023-02-27T21:51:38.274Z,2.80
2023-02-27T21:54:06.236Z,2.70
2023-02-27T21:56:32.692Z,1.90
2023-02-27T21:59:01.964Z,2.13
2023-02-27T22:01:29.064Z,2.20
2023-02-27T22:03:58.890Z,2.28
2023-02-27T22:06:26.519Z,1.70
2023-02-27T22:08:56.273Z,2.10
2023-02-27T22:11:23.914Z,2.13
2023-02-27T22:13:50.353Z,2.33
2023-02-27T22:16:16.829Z,2.05
2023-02-27T22:18:43.324Z,2.08
2023-02-27T22:21:11.003Z,2.22
2023-02-27T22:23:37.996Z,2.15
2023-02-27T22:26:09.211Z,2.13
2023-02-27T22:28:38.992Z,2.35
2023-02-27T22:31:09.635Z,2.47
2023-02-27T22:33:36.578Z,2.58
2023-02-27T22:36:09.926Z,2.75
2023-02-27T22:38:36.945Z,2.55
2023-02-27T22:41:04.385Z,3.08
2023-02-27T22:43:31.713Z,3.33
2023-02-27T22:45:58.361Z,3.10
2023-02-27T22:48:25.271Z,3.22
2023-02-27T22:51:03.160Z,3.33
2023-02-27T22:53:33.235Z,3.17
2023-02-27T22:55:59.646Z,3.17
2023-02-27T22:58:26.098Z,2.30
2023-02-27T23:00:56.618Z,2.67
2023-02-27T23:03:23.088Z,2.60
2023-02-27T23:05:49.985Z,3.25
2023-02-27T23:08:19.519Z,2.42
2023-02-27T23:10:45.892Z,2.45
2023-02-27T23:13:12.400Z,2.70
2023-02-27T23:15:39.203Z,2.97
2023-02-27T23:18:05.930Z,3.20
2023-02-27T23:20:36.239Z,3.80
2023-02-27T23:23:02.823Z,2.65
2023-02-27T23:25:29.233Z,2.72
2023-02-27T23:27:55.650Z,2.70
2023-02-27T23:30:28.188Z,3.65
2023-02-27T23:32:54.948Z,2.88
2023-02-27T23:35:22.950Z,3.00
2023-02-27T23:37:56.537Z,2.83
2023-02-27T23:40:24.356Z,3.00
2023-02-27T23:42:50.767Z,2.97
2023-02-27T23:45:23.262Z,2.40
2023-02-27T23:47:54.748Z,2.28
2023-02-27T23:50:22.835Z,2.55
2023-02-27T23:52:49.997Z,2.80
2023-02-27T23:55:17.187Z,2.88
2023-02-27T23:57:43.618Z,2.20
